createdAt,value
2023-03-04T00:02:22.997Z,58.91
2023-03-04T00:04:50.390Z,63.71
2023-03-04T00:07:19.076Z,59.84
2023-03-04T00:09:46.831Z,56.90
2023-03-04T00:12:13.794Z,60.82
2023-03-04T00:14:41.502Z,64.56
2023-03-04T00:17:08.650Z,58.83
2023-03-04T00:19:36.038Z,57.73
2023-03-04T00:22:04.389Z,62.53
2023-03-04T00:24:32.382Z,62.40
2023-03-04T00:26:59.656Z,57.52
2023-03-04T00:29:27.242Z,60.38
2023-03-04T00:31:54.437Z,64.37
2023-03-04T00:34:21.588Z,59.22
2023-03-04T00:36:48.717Z,57.41
2023-03-04T00:39:17.746Z,61.71
2023-03-04T00:41:44.961Z,62.39
2023-03-04T00:44:12.320Z,57.07
2023-03-04T00:46:39.128Z,59.27
2023-03-04T00:49:06.055Z,63.39
2023-03-04T00:51:33.031Z,59.22
2023-03-04T00:54:01.027Z,57.04
2023-03-04T00:56:28.261Z,61.96
2023-03-04T00:58:55.605Z,62.30
2023-03-04T01:01:22.603Z,57.33
2023-03-04T01:03:49.779Z,60.78
2023-03-04T01:06:17.027Z,63.43
2023-03-04T01:08:44.436Z,58.07
2023-03-04T01:11:11.280Z,57.59
2023-03-04T01:13:38.168Z,62.59
2023-03-04T01:16:05.454Z,60.27
2023-03-04T01:18:32.910Z,57.72
2023-03-04T01:20:59.878Z,62.27
2023-03-04T01:23:29.440Z,62.19
2023-03-04T01:25:56.363Z,57.02
2023-03-04T01:28:23.737Z,60.14
2023-03-04T01:30:50.536Z,63.67
2023-03-04T01:33:17.358Z,58.32
2023-03-04T01:35:44.272Z,57.98
2023-03-04T01:38:11.193Z,62.57
2023-03-04T01:40:38.599Z,62.88
2023-03-04T01:43:05.961Z,56.40
2023-03-04T01:45:33.887Z,59.79
2023-03-04T01:48:00.800Z,63.49
2023-03-04T01:50:32.134Z,58.23
2023-03-04T01:52:59.065Z,59.22
2023-03-04T01:55:28.765Z,63.41
2023-03-04T01:57:57.572Z,60.70
2023-03-04T02:00:27.258Z,56.91
2023-03-04T02:02:58.567Z,61.30
2023-03-04T02:05:25.814Z,64.02
2023-03-04T02:07:55.425Z,57.64
2023-03-04T02:10:22.947Z,59.15
2023-03-04T02:12:50.957Z,63.41
2023-03-04T02:15:18.131Z,60.10
2023-03-04T02:17:45.209Z,58.11
2023-03-04T02:20:31.028Z,62.45
2023-03-04T02:23:01.923Z,61.63
2023-03-04T02:25:37.272Z,57.25
2023-03-04T02:28:04.379Z,61.61
2023-03-04T02:30:31.396Z,63.71
2023-03-04T02:32:59.594Z,57.93
2023-03-04T02:35:26.948Z,59.26
2023-03-04T02:37:53.880Z,63.82
2023-03-04T02:40:31.499Z,60.04
2023-03-04T02:43:01.129Z,57.84
2023-03-04T02:45:35.780Z,62.40
2023-03-04T02:48:03.623Z,62.25
2023-03-04T02:50:35.494Z,56.41
2023-03-04T02:53:02.397Z,59.57
2023-03-04T02:55:29.753Z,63.87
2023-03-04T02:57:56.590Z,58.86
2023-03-04T03:00:24.178Z,56.73
2023-03-04T03:02:51.682Z,61.53
2023-03-04T03:05:19.168Z,63.18
2023-03-04T03:07:46.193Z,56.87
2023-03-04T03:10:13.451Z,58.80
2023-03-04T03:12:41.017Z,63.83
2023-03-04T03:15:09.090Z,61.95
2023-03-04T03:17:35.983Z,55.77
2023-03-04T03:20:03.859Z,59.29
2023-03-04T03:22:31.056Z,63.84
2023-03-04T03:24:58.004Z,58.93
2023-03-04T03:27:25.269Z,57.10
2023-03-04T03:29:52.694Z,61.69
2023-03-04T03:32:19.645Z,63.27
2023-03-04T03:34:49.100Z,57.45
2023-03-04T03:37:18.556Z,58.84
2023-03-04T03:39:45.437Z,63.38
2023-03-04T03:42:12.303Z,62.15
2023-03-04T03:44:39.131Z,55.86
2023-03-04T03:47:06.102Z,58.53
2023-03-04T03:49:32.909Z,63.37
2023-03-04T03:51:59.750Z,61.42
2023-03-04T03:54:26.561Z,56.96
2023-03-04T03:56:53.428Z,59.75
2023-03-04T03:59:20.269Z,63.88
2023-03-04T04:01:47.094Z,59.34
2023-03-04T04:04:14.184Z,56.34
2023-03-04T04:06:41.126Z,61.17
2023-03-04T04:09:07.956Z,64.12
2023-03-04T04:11:34.902Z,58.04
2023-03-04T04:14:01.751Z,57.97
2023-03-04T04:16:28.696Z,62.47
2023-03-04T04:18:55.529Z,63.22
2023-03-04T04:21:22.444Z,58.26
2023-03-04T04:23:49.211Z,58.22
2023-03-04T04:26:16.040Z,62.52
2023-03-04T04:28:42.919Z,62.67
2023-03-04T04:31:10.422Z,56.39
2023-03-04T04:33:37.907Z,59.51
2023-03-04T04:36:05.711Z,63.60
2023-03-04T04:38:32.514Z,60.49
2023-03-04T04:41:00.089Z,55.32
2023-03-04T04:43:27.193Z,57.54
2023-03-04T04:45:54.302Z,62.28
2023-03-04T04:48:21.190Z,63.08
2023-03-04T04:50:53.661Z,57.34
2023-03-04T04:53:20.470Z,58.83
2023-03-04T04:55:47.319Z,63.26
2023-03-04T04:58:14.119Z,61.33
2023-03-04T05:00:41.015Z,55.63
2023-03-04T05:03:07.970Z,57.62
2023-03-04T05:05:34.796Z,62.20
2023-03-04T05:08:01.591Z,63.30
2023-03-04T05:10:28.415Z,56.97
2023-03-04T05:12:55.242Z,57.25
2023-03-04T05:15:22.181Z,61.61
2023-03-04T05:17:48.986Z,63.14
2023-03-04T05:20:15.933Z,56.82
2023-03-04T05:22:42.788Z,56.41
2023-03-04T05:25:10.780Z,60.93
2023-03-04T05:27:37.589Z,63.56
2023-03-04T05:30:05.052Z,58.08
2023-03-04T05:32:32.075Z,56.53
2023-03-04T05:34:58.955Z,60.85
2023-03-04T05:37:25.874Z,63.54
2023-03-04T05:39:52.706Z,57.98
2023-03-04T05:42:19.559Z,57.15
2023-03-04T05:44:46.391Z,61.68
2023-03-04T05:47:13.206Z,62.43
2023-03-04T05:49:41.232Z,56.26
2023-03-04T05:52:08.146Z,58.45
2023-03-04T05:54:34.975Z,62.63
2023-03-04T05:57:02.649Z,63.75
2023-03-04T05:59:29.509Z,56.28
2023-03-04T06:01:56.625Z,57.51
2023-03-04T06:04:23.458Z,62.01
2023-03-04T06:06:50.309Z,62.68
2023-03-04T06:09:17.318Z,56.15
2023-03-04T06:11:44.133Z,58.12
2023-03-04T06:14:13.912Z,62.81
2023-03-04T06:16:40.722Z,62.15
2023-03-04T06:19:07.616Z,55.52
2023-03-04T06:21:34.473Z,57.97
2023-03-04T06:24:01.450Z,63.18
2023-03-04T06:26:28.304Z,59.22
2023-03-04T06:28:57.202Z,57.46
2023-03-04T06:31:24.001Z,61.28
2023-03-04T06:33:51.313Z,63.63
2023-03-04T06:36:18.260Z,57.13
2023-03-04T06:38:46.121Z,57.94
2023-03-04T06:41:14.154Z,62.15
2023-03-04T06:43:41.283Z,61.35
2023-03-04T06:46:08.559Z,55.12
2023-03-04T06:48:35.803Z,58.91
2023-03-04T06:51:10.756Z,63.34
2023-03-04T06:53:38.785Z,60.45
2023-03-04T06:56:06.452Z,55.67
2023-03-04T06:58:33.686Z,58.95
2023-03-04T07:01:16.545Z,63.40
2023-03-04T07:03:44.153Z,59.88
2023-03-04T07:06:16.106Z,56.20
2023-03-04T07:08:43.740Z,60.03
2023-03-04T07:11:11.672Z,63.30
2023-03-04T07:13:38.736Z,57.96
2023-03-04T07:16:10.560Z,57.82
2023-03-04T07:18:37.586Z,62.31
2023-03-04T07:21:05.668Z,61.46
2023-03-04T07:23:32.990Z,56.35
2023-03-04T07:25:59.885Z,59.24
2023-03-04T07:28:27.463Z,63.30
2023-03-04T07:30:54.447Z,59.65
2023-03-04T07:33:21.487Z,56.43
2023-03-04T07:35:48.442Z,60.58
2023-03-04T07:38:15.417Z,63.43
2023-03-04T07:40:42.229Z,57.81
2023-03-04T07:43:13.109Z,57.53
2023-03-04T07:45:40.115Z,62.34
2023-03-04T07:48:06.937Z,61.26
2023-03-04T07:50:33.766Z,56.64
2023-03-04T07:53:00.642Z,59.77
2023-03-04T07:55:28.123Z,63.45
2023-03-04T07:57:55.058Z,58.61
2023-03-04T08:00:22.264Z,58.37
2023-03-04T08:02:49.192Z,62.55
2023-03-04T08:05:16.237Z,61.55
2023-03-04T08:07:43.102Z,56.76
2023-03-04T08:10:10.841Z,59.97
2023-03-04T08:12:37.749Z,62.94
2023-03-04T08:15:05.063Z,58.06
2023-03-04T08:17:31.993Z,57.79
2023-03-04T08:19:58.909Z,61.99
2023-03-04T08:22:25.883Z,62.71
2023-03-04T08:24:52.812Z,56.69
2023-03-04T08:27:20.444Z,58.69
2023-03-04T08:29:47.272Z,62.93
2023-03-04T08:32:14.421Z,60.42
2023-03-04T08:34:41.339Z,56.73
2023-03-04T08:37:08.256Z,59.55
2023-03-04T08:39:36.308Z,63.19
2023-03-04T08:42:03.542Z,59.03
2023-03-04T08:44:30.492Z,57.73
2023-03-04T08:46:57.454Z,61.52
2023-03-04T08:49:24.370Z,62.80
2023-03-04T08:51:51.297Z,56.53
2023-03-04T08:54:18.203Z,57.87
2023-03-04T08:56:45.175Z,62.40
2023-03-04T08:59:12.143Z,60.32
2023-03-04T09:01:39.228Z,55.20
2023-03-04T09:04:06.138Z,59.46
2023-03-04T09:06:33.242Z,63.39
2023-03-04T09:09:00.127Z,59.13
2023-03-04T09:11:27.076Z,56.26
2023-03-04T09:13:53.951Z,60.01
2023-03-04T09:16:21.505Z,62.65
2023-03-04T09:18:49.067Z,57.23
2023-03-04T09:21:16.262Z,58.32
2023-03-04T09:23:43.301Z,62.64
2023-03-04T09:26:23.881Z,59.92
2023-03-04T09:28:55.930Z,56.08
2023-03-04T09:31:23.724Z,59.73
2023-03-04T09:33:53.959Z,63.34
2023-03-04T09:36:21.106Z,56.73
2023-03-04T09:38:48.388Z,56.12
2023-03-04T09:41:29.814Z,59.48
2023-03-04T09:43:57.992Z,62.38
2023-03-04T09:46:36.381Z,58.82
2023-03-04T09:49:07.011Z,56.88
2023-03-04T09:51:40.202Z,60.62
2023-03-04T09:54:15.856Z,62.25
2023-03-04T09:56:42.900Z,56.29
2023-03-04T09:59:13.431Z,58.85
2023-03-04T10:01:48.205Z,62.96
2023-03-04T10:04:47.630Z,59.71
2023-03-04T10:07:20.388Z,57.59
2023-03-04T10:09:57.681Z,61.76
2023-03-04T10:12:30.452Z,61.71
2023-03-04T10:15:00.125Z,56.13
2023-03-04T10:17:38.304Z,58.80
2023-03-04T10:20:24.042Z,63.00
2023-03-04T10:22:56.546Z,59.25
2023-03-04T10:25:23.377Z,57.12
2023-03-04T10:27:52.459Z,60.93
2023-03-04T10:30:49.868Z,64.04
2023-03-04T10:33:19.529Z,57.18
2023-03-04T10:36:09.340Z,57.58
2023-03-04T10:38:37.696Z,63.00
2023-03-04T10:41:22.794Z,61.15
2023-03-04T10:43:58.906Z,56.86
2023-03-04T10:46:26.928Z,60.96
2023-03-04T10:48:55.319Z,63.75
2023-03-04T10:51:28.155Z,57.80
2023-03-04T10:54:16.442Z,58.22
2023-03-04T10:56:53.713Z,62.94
2023-03-04T10:59:33.205Z,59.11
2023-03-04T11:02:02.485Z,59.07
2023-03-04T11:04:34.589Z,63.07
2023-03-04T11:07:01.422Z,61.83
2023-03-04T11:09:31.657Z,57.55
2023-03-04T11:12:04.577Z,60.92
2023-03-04T11:14:37.700Z,63.88
2023-03-04T11:17:26.398Z,59.67
2023-03-04T11:20:06.069Z,57.90
2023-03-04T11:22:33.524Z,62.60
2023-03-04T11:25:05.969Z,62.57
2023-03-04T11:27:47.846Z,57.95
2023-03-04T11:30:46.553Z,60.49
2023-03-04T11:33:28.594Z,64.49
2023-03-04T11:36:14.807Z,57.68
2023-03-04T11:38:48.332Z,59.34
2023-03-04T11:41:36.059Z,63.48
2023-03-04T11:44:06.899Z,59.98
2023-03-04T11:46:49.323Z,57.76
2023-03-04T11:49:31.707Z,62.70
2023-03-04T11:52:29.156Z,61.95
2023-03-04T11:55:09.013Z,57.47
2023-03-04T11:57:51.578Z,61.80
2023-03-04T12:00:37.241Z,63.81
2023-03-04T12:03:41.747Z,58.06
2023-03-04T12:06:49.785Z,60.73
2023-03-04T12:09:42.856Z,64.86
2023-03-04T12:12:31.462Z,58.83
2023-03-04T12:15:08.383Z,57.67
2023-03-04T12:18:00.574Z,62.91
2023-03-04T12:20:46.325Z,61.61
2023-03-04T12:23:40.489Z,57.45
2023-03-04T12:26:33.581Z,60.66
2023-03-04T12:29:41.069Z,64.96
2023-03-04T12:32:10.930Z,58.58
2023-03-04T12:34:44.206Z,56.81
2023-03-04T12:37:25.946Z,60.77
2023-03-04T12:40:17.328Z,65.02
2023-03-04T12:43:09.274Z,57.64
2023-03-04T12:46:03.002Z,58.70
2023-03-04T12:48:29.958Z,63.90
2023-03-04T12:51:41.347Z,62.09
2023-03-04T12:54:39.368Z,56.53
2023-03-04T12:57:25.193Z,60.63
2023-03-04T13:00:08.985Z,62.55
2023-03-04T13:03:11.359Z,56.83
2023-03-04T13:06:05.369Z,57.32
2023-03-04T13:08:40.040Z,61.15
2023-03-04T13:11:25.854Z,62.89
2023-03-04T13:14:15.303Z,56.34
2023-03-04T13:16:45.667Z,58.63
2023-03-04T13:19:44.482Z,61.24
2023-03-04T13:22:27.001Z,61.40
2023-03-04T13:24:54.970Z,54.89
2023-03-04T13:27:59.435Z,57.97
2023-03-04T13:30:32.221Z,62.98
2023-03-04T13:33:19.017Z,57.98
2023-03-04T13:36:02.170Z,54.07
2023-03-04T13:38:31.115Z,57.68
2023-03-04T13:41:19.526Z,59.46
2023-03-04T13:43:48.276Z,60.64
2023-03-04T13:46:18.332Z,55.08
2023-03-04T13:48:51.219Z,54.27
2023-03-04T13:51:37.777Z,55.02
2023-03-04T13:54:15.482Z,55.39
2023-03-04T13:57:17.224Z,53.60
2023-03-04T13:59:49.473Z,58.12
2023-03-04T14:02:20.571Z,61.32
2023-03-04T14:04:58.004Z,63.93
2023-03-04T14:07:29.265Z,56.92
2023-03-04T14:09:57.711Z,55.09
2023-03-04T14:12:27.564Z,58.35
2023-03-04T14:14:57.643Z,62.06
2023-03-04T14:17:29.930Z,61.76
2023-03-04T14:19:57.752Z,55.07
2023-03-04T14:22:34.060Z,54.67
2023-03-04T14:25:02.813Z,56.74
2023-03-04T14:27:33.237Z,59.48
2023-03-04T14:30:31.850Z,61.35
2023-03-04T14:33:08.714Z,62.46
2023-03-04T14:35:36.720Z,54.84
2023-03-04T14:38:32.678Z,53.88
2023-03-04T14:41:07.195Z,53.45
2023-03-04T14:43:46.012Z,55.00
2023-03-04T14:46:18.480Z,55.61
2023-03-04T14:48:50.604Z,55.85
2023-03-04T14:51:31.554Z,55.42
2023-03-04T14:53:59.239Z,55.06
2023-03-04T14:56:35.214Z,54.88
2023-03-04T14:59:02.751Z,55.21
2023-03-04T15:01:35.287Z,55.05
2023-03-04T15:04:08.068Z,54.81
2023-03-04T15:06:39.393Z,53.95
2023-03-04T15:09:21.003Z,54.54
2023-03-04T15:12:02.079Z,54.50
2023-03-04T15:14:44.395Z,54.29
2023-03-04T15:17:38.316Z,54.46
2023-03-04T15:20:08.997Z,54.59
2023-03-04T15:22:37.291Z,51.08
2023-03-04T15:25:04.352Z,52.71
2023-03-04T15:27:31.570Z,52.50
2023-03-04T15:30:01.924Z,50.44
2023-03-04T15:32:29.942Z,48.85
2023-03-04T15:34:57.701Z,51.05
2023-03-04T15:37:28.163Z,51.38
2023-03-04T15:39:57.872Z,51.98
2023-03-04T15:42:25.558Z,52.20
2023-03-04T15:44:52.443Z,52.33
2023-03-04T15:47:19.445Z,52.87
2023-03-04T15:49:49.271Z,53.30
2023-03-04T15:52:21.400Z,53.45
2023-03-04T15:54:49.929Z,52.93
2023-03-04T15:57:29.669Z,52.94
2023-03-04T15:59:56.624Z,53.18
2023-03-04T16:02:27.361Z,52.87
2023-03-04T16:04:54.499Z,53.30
2023-03-04T16:07:25.068Z,52.56
2023-03-04T16:09:57.242Z,52.42
2023-03-04T16:12:27.809Z,52.99
2023-03-04T16:14:54.939Z,53.78
2023-03-04T16:17:21.908Z,52.83
2023-03-04T16:19:48.766Z,52.50
2023-03-04T16:22:24.329Z,53.14
2023-03-04T16:24:52.441Z,52.24
2023-03-04T16:27:20.097Z,52.51
2023-03-04T16:29:47.005Z,51.20
2023-03-04T16:32:14.462Z,51.70
2023-03-04T16:34:41.394Z,52.63
2023-03-04T16:37:15.728Z,52.12
2023-03-04T16:39:46.204Z,51.30
2023-03-04T16:42:19.240Z,51.89
2023-03-04T16:44:46.704Z,52.38
2023-03-04T16:47:13.605Z,52.61
2023-03-04T16:49:40.974Z,52.49
2023-03-04T16:52:14.914Z,51.21
2023-03-04T16:54:42.659Z,51.59
2023-03-04T16:57:11.230Z,51.22
2023-03-04T16:59:39.661Z,51.28
2023-03-04T17:02:18.134Z,50.53
2023-03-04T17:04:46.766Z,49.45
2023-03-04T17:07:13.739Z,48.96
2023-03-04T17:09:40.965Z,50.04
2023-03-04T17:12:12.142Z,48.69
2023-03-04T17:14:39.968Z,47.82
2023-03-04T17:17:07.894Z,47.29
2023-03-04T17:19:35.098Z,47.40
2023-03-04T17:22:02.463Z,47.43
2023-03-04T17:24:29.649Z,47.59
2023-03-04T17:26:56.749Z,47.18
2023-03-04T17:29:23.713Z,46.37
2023-03-04T17:31:50.605Z,45.87
2023-03-04T17:34:18.917Z,45.85
2023-03-04T17:36:45.823Z,46.57
2023-03-04T17:39:12.893Z,45.91
2023-03-04T17:41:39.767Z,45.65
2023-03-04T17:44:06.732Z,45.40
2023-03-04T17:46:34.129Z,45.34
2023-03-04T17:49:01.208Z,44.58
2023-03-04T17:51:38.088Z,43.69
2023-03-04T17:54:06.782Z,43.58
2023-03-04T17:56:35.107Z,43.90
2023-03-04T17:59:06.432Z,43.78
2023-03-04T18:01:33.533Z,43.93
2023-03-04T18:04:01.259Z,44.05
2023-03-04T18:06:28.186Z,44.92
2023-03-04T18:08:55.097Z,45.13
2023-03-04T18:11:24.638Z,46.03
2023-03-04T18:13:53.381Z,46.13
2023-03-04T18:16:26.737Z,46.67
2023-03-04T18:18:57.790Z,47.18
2023-03-04T18:21:27.226Z,47.73
2023-03-04T18:23:54.442Z,47.54
2023-03-04T18:26:23.605Z,47.97
2023-03-04T18:28:52.026Z,48.08
2023-03-04T18:31:20.265Z,48.03
2023-03-04T18:33:47.380Z,48.50
2023-03-04T18:36:14.792Z,48.47
2023-03-04T18:38:42.124Z,48.55
2023-03-04T18:41:12.558Z,49.16
2023-03-04T18:43:39.733Z,49.78
2023-03-04T18:46:19.991Z,49.73
2023-03-04T18:48:54.059Z,50.63
2023-03-04T18:51:21.024Z,50.85
2023-03-04T18:53:48.077Z,51.02
2023-03-04T18:56:28.211Z,50.69
2023-03-04T18:58:55.416Z,50.65
2023-03-04T19:01:25.198Z,50.74
2023-03-04T19:03:54.530Z,50.88
2023-03-04T19:06:23.068Z,50.89
2023-03-04T19:08:55.311Z,51.30
2023-03-04T19:11:23.139Z,51.28
2023-03-04T19:13:52.820Z,51.26
2023-03-04T19:16:19.831Z,51.54
2023-03-04T19:18:46.790Z,51.38
2023-03-04T19:21:13.941Z,51.37
2023-03-04T19:23:41.375Z,51.74
2023-03-04T19:26:08.517Z,51.98
2023-03-04T19:28:35.815Z,51.99
2023-03-04T19:31:09.530Z,52.33
2023-03-04T19:33:40.986Z,52.81
2023-03-04T19:36:10.038Z,53.13
2023-03-04T19:38:37.242Z,54.42
2023-03-04T19:41:15.953Z,54.51
2023-03-04T19:43:43.311Z,54.08
2023-03-04T19:46:10.760Z,54.10
2023-03-04T19:48:38.486Z,54.62
2023-03-04T19:51:14.528Z,54.28
2023-03-04T19:53:41.955Z,54.17
2023-03-04T19:56:09.117Z,54.74
2023-03-04T19:58:39.113Z,55.15
2023-03-04T20:01:06.553Z,55.05
2023-03-04T20:03:33.753Z,54.22
2023-03-04T20:06:08.378Z,54.62
2023-03-04T20:08:38.286Z,54.67
2023-03-04T20:11:12.854Z,54.48
2023-03-04T20:13:39.765Z,54.50
2023-03-04T20:16:11.252Z,54.08
2023-03-04T20:18:38.675Z,53.83
2023-03-04T20:21:06.081Z,54.04
2023-03-04T20:23:33.968Z,54.15
2023-03-04T20:26:03.157Z,54.10
2023-03-04T20:28:30.973Z,54.78
2023-03-04T20:31:23.699Z,55.22
2023-03-04T20:33:51.967Z,55.24
2023-03-04T20:36:21.378Z,54.96
2023-03-04T20:39:01.533Z,55.61
2023-03-04T20:41:29.442Z,55.49
2023-03-04T20:43:56.624Z,55.67
2023-03-04T20:46:41.430Z,55.86
2023-03-04T20:49:15.096Z,56.14
2023-03-04T20:51:43.020Z,56.40
2023-03-04T20:54:10.593Z,56.48
2023-03-04T20:56:38.233Z,57.09
2023-03-04T20:59:08.891Z,57.16
2023-03-04T21:01:38.260Z,57.07
2023-03-04T21:04:06.111Z,57.39
2023-03-04T21:06:33.199Z,57.77
2023-03-04T21:09:03.645Z,57.79
2023-03-04T21:11:30.681Z,57.89
2023-03-04T21:13:57.995Z,57.70
2023-03-04T21:16:30.142Z,57.46
2023-03-04T21:18:57.072Z,57.26
2023-03-04T21:21:26.723Z,57.44
2023-03-04T21:23:55.140Z,57.49
2023-03-04T21:26:23.026Z,57.39
2023-03-04T21:28:54.364Z,57.91
2023-03-04T21:31:26.194Z,57.91
2023-03-04T21:33:58.814Z,58.05
2023-03-04T21:36:26.437Z,58.10
2023-03-04T21:38:54.052Z,57.87
2023-03-04T21:41:24.154Z,57.83
2023-03-04T21:43:52.074Z,57.56
2023-03-04T21:46:19.381Z,57.25
2023-03-04T21:48:47.928Z,57.28
2023-03-04T21:51:16.769Z,57.18
2023-03-04T21:53:44.185Z,57.40
2023-03-04T21:56:12.374Z,57.34
2023-03-04T21:58:42.322Z,57.32
2023-03-04T22:01:15.108Z,57.23
2023-03-04T22:03:42.402Z,57.12
2023-03-04T22:06:11.006Z,57.04
2023-03-04T22:08:38.944Z,57.19
2023-03-04T22:11:07.599Z,56.91
2023-03-04T22:13:35.356Z,57.01
2023-03-04T22:16:02.560Z,56.65
2023-03-04T22:18:29.611Z,56.72
2023-03-04T22:21:02.315Z,56.34
2023-03-04T22:23:29.768Z,56.18
2023-03-04T22:25:59.656Z,56.12
2023-03-04T22:28:28.658Z,56.96
2023-03-04T22:30:57.096Z,57.86
2023-03-04T22:33:25.331Z,58.26
2023-03-04T22:35:53.007Z,57.85
2023-03-04T22:38:21.278Z,58.17
2023-03-04T22:40:49.388Z,58.11
2023-03-04T22:43:16.534Z,58.42
2023-03-04T22:45:43.661Z,58.48
2023-03-04T22:48:10.907Z,58.71
2023-03-04T22:50:38.176Z,58.70
2023-03-04T22:53:07.248Z,58.84
2023-03-04T22:55:35.485Z,58.90
2023-03-04T22:58:03.798Z,59.08
2023-03-04T23:00:32.070Z,58.92
2023-03-04T23:02:59.395Z,58.69
2023-03-04T23:05:26.648Z,58.97
2023-03-04T23:07:53.925Z,58.56
2023-03-04T23:10:24.242Z,58.60
2023-03-04T23:12:52.829Z,58.38
2023-03-04T23:15:20.334Z,58.47
2023-03-04T23:17:47.978Z,58.68
2023-03-04T23:20:20.980Z,59.16
2023-03-04T23:22:50.311Z,59.27
2023-03-04T23:25:20.113Z,59.59
2023-03-04T23:27:50.071Z,60.20
2023-03-04T23:30:17.673Z,60.40
2023-03-04T23:32:48.305Z,59.89
2023-03-04T23:35:19.281Z,59.76
2023-03-04T23:37:50.522Z,60.06
2023-03-04T23:40:20.690Z,60.55
2023-03-04T23:42:48.809Z,61.06
2023-03-04T23:45:18.236Z,61.30
2023-03-04T23:47:47.783Z,60.57
2023-03-04T23:50:16.274Z,60.70
2023-03-04T23:52:44.791Z,60.44
2023-03-04T23:55:19.057Z,60.17
2023-03-04T23:57:48.612Z,59.97
